sensor_id;sensor_type;location;lat;lon;timestamp;pressure;altitude;pressure_sealevel;temperature;humidity
49541;BME280;35432;43.566;1.398;2023-02-15T00:00:08;101004.97;;;9.40;73.91
49541;BME280;35432;43.566;1.398;2023-02-15T00:02:35;101002.38;;;9.42;74.22
49541;BME280;35432;43.566;1.398;2023-02-15T00:05:01;101005.84;;;9.41;73.97
49541;BME280;35432;43.566;1.398;2023-02-15T00:07:26;101004.09;;;9.41;74.21
49541;BME280;35432;43.566;1.398;2023-02-15T00:09:52;101001.50;;;9.43;74.09
49541;BME280;35432;43.566;1.398;2023-02-15T00:12:17;101008.53;;;9.44;74.05
49541;BME280;35432;43.566;1.398;2023-02-15T00:14:42;101005.88;;;9.44;74.13
49541;BME280;35432;43.566;1.398;2023-02-15T00:17:08;101005.84;;;9.42;74.02
49541;BME280;35432;43.566;1.398;2023-02-15T00:19:33;101011.97;;;9.41;73.92
49541;BME280;35432;43.566;1.398;2023-02-15T00:21:59;101016.34;;;9.39;74.13
49541;BME280;35432;43.566;1.398;2023-02-15T00:24:24;101004.94;;;9.39;73.96
49541;BME280;35432;43.566;1.398;2023-02-15T00:26:50;101011.00;;;9.34;74.20
49541;BME280;35432;43.566;1.398;2023-02-15T00:29:16;101003.13;;;9.33;74.20
49541;BME280;35432;43.566;1.398;2023-02-15T00:31:42;101005.72;;;9.31;74.18
49541;BME280;35432;43.566;1.398;2023-02-15T00:34:14;100996.91;;;9.28;73.45
49541;BME280;35432;43.566;1.398;2023-02-15T00:36:40;100996.91;;;9.28;74.47
49541;BME280;35432;43.566;1.398;2023-02-15T00:39:07;100995.13;;;9.27;74.44
49541;BME280;35432;43.566;1.398;2023-02-15T00:41:33;100996.91;;;9.26;74.58
49541;BME280;35432;43.566;1.398;2023-02-15T00:43:59;100995.13;;;9.27;74.42
49541;BME280;35432;43.566;1.398;2023-02-15T00:46:24;100990.75;;;9.26;74.50
49541;BME280;35432;43.566;1.398;2023-02-15T00:48:49;100994.28;;;9.28;74.38
49541;BME280;35432;43.566;1.398;2023-02-15T00:51:15;100996.00;;;9.24;74.60
49541;BME280;35432;43.566;1.398;2023-02-15T00:53:42;100983.69;;;9.22;74.47
49541;BME280;35432;43.566;1.398;2023-02-15T00:56:09;100987.22;;;9.24;74.75
49541;BME280;35432;43.566;1.398;2023-02-15T00:58:34;100981.06;;;9.20;74.70
49541;BME280;35432;43.566;1.398;2023-02-15T01:01:08;100984.50;;;9.17;74.53
49541;BME280;35432;43.566;1.398;2023-02-15T01:03:33;100983.69;;;9.20;74.71
49541;BME280;35432;43.566;1.398;2023-02-15T01:05:59;100986.31;;;9.22;74.99
49541;BME280;35432;43.566;1.398;2023-02-15T01:08:25;100990.72;;;9.21;74.99
49541;BME280;35432;43.566;1.398;2023-02-15T01:10:50;100994.22;;;9.23;75.01
49541;BME280;35432;43.566;1.398;2023-02-15T01:13:16;100989.84;;;9.24;74.89
49541;BME280;35432;43.566;1.398;2023-02-15T01:15:43;100988.97;;;9.25;74.91
49541;BME280;35432;43.566;1.398;2023-02-15T01:18:09;100989.84;;;9.24;74.74
49541;BME280;35432;43.566;1.398;2023-02-15T01:20:38;100984.59;;;9.24;74.88
49541;BME280;35432;43.566;1.398;2023-02-15T01:23:05;100995.09;;;9.24;75.32
49541;BME280;35432;43.566;1.398;2023-02-15T01:25:32;100988.13;;;9.26;75.04
49541;BME280;35432;43.566;1.398;2023-02-15T01:27:58;100987.25;;;9.25;75.04
49541;BME280;35432;43.566;1.398;2023-02-15T01:30:23;100995.13;;;9.25;75.17
49541;BME280;35432;43.566;1.398;2023-02-15T01:32:49;100999.53;;;9.26;74.98
49541;BME280;35432;43.566;1.398;2023-02-15T01:35:14;100999.53;;;9.28;74.99
49541;BME280;35432;43.566;1.398;2023-02-15T01:37:39;100996.03;;;9.27;75.10
49541;BME280;35432;43.566;1.398;2023-02-15T01:40:08;100995.13;;;9.27;74.83
49541;BME280;35432;43.566;1.398;2023-02-15T01:42:33;100997.72;;;9.24;75.03
49541;BME280;35432;43.566;1.398;2023-02-15T01:45:00;100993.34;;;9.23;74.76
49541;BME280;35432;43.566;1.398;2023-02-15T01:47:39;101000.31;;;9.21;74.41
49541;BME280;35432;43.566;1.398;2023-02-15T01:55:33;100996.75;;;9.15;75.05
49541;BME280;35432;43.566;1.398;2023-02-15T01:58:02;100991.50;;;9.15;75.29
49541;BME280;35432;43.566;1.398;2023-02-15T02:00:28;100994.13;;;9.15;75.04
49541;BME280;35432;43.566;1.398;2023-02-15T02:02:55;100988.84;;;9.12;75.11
49541;BME280;35432;43.566;1.398;2023-02-15T02:05:21;100987.06;;;9.13;75.39
49541;BME280;35432;43.566;1.398;2023-02-15T02:07:48;100982.72;;;9.15;75.15
49541;BME280;35432;43.566;1.398;2023-02-15T02:10:17;100981.81;;;9.13;75.20
49541;BME280;35432;43.566;1.398;2023-02-15T02:12:45;100977.41;;;9.10;75.50
49541;BME280;35432;43.566;1.398;2023-02-15T02:15:12;100986.16;;;9.09;75.12
49541;BME280;35432;43.566;1.398;2023-02-15T02:23:49;100981.69;;;9.03;74.63
49541;BME280;35432;43.566;1.398;2023-02-15T02:26:56;100975.53;;;9.03;75.30
49541;BME280;35432;43.566;1.398;2023-02-15T02:37:18;100976.34;;;8.96;75.09
49541;BME280;35432;43.566;1.398;2023-02-15T02:40:05;100974.56;;;8.93;74.60
49541;BME280;35432;43.566;1.398;2023-02-15T02:42:41;100977.19;;;8.95;75.42
49541;BME280;35432;43.566;1.398;2023-02-15T02:45:25;100965.75;;;8.89;74.93
49541;BME280;35432;43.566;1.398;2023-02-15T02:48:19;100960.47;;;8.88;75.35
49541;BME280;35432;43.566;1.398;2023-02-15T02:50:44;100966.63;;;8.88;75.73
49541;BME280;35432;43.566;1.398;2023-02-15T02:53:10;100960.41;;;8.83;75.61
49541;BME280;35432;43.566;1.398;2023-02-15T02:55:46;100960.38;;;8.82;75.61
49541;BME280;35432;43.566;1.398;2023-02-15T03:06:10;100955.00;;;8.74;75.96
49541;BME280;35432;43.566;1.398;2023-02-15T03:08:42;100948.84;;;8.72;75.98
49541;BME280;35432;43.566;1.398;2023-02-15T03:11:08;100945.38;;;8.73;75.88
49541;BME280;35432;43.566;1.398;2023-02-15T03:13:35;100933.97;;;8.71;75.93
49541;BME280;35432;43.566;1.398;2023-02-15T03:16:01;100937.44;;;8.68;76.07
49541;BME280;35432;43.566;1.398;2023-02-15T03:18:48;100937.38;;;8.65;75.86
49541;BME280;35432;43.566;1.398;2023-02-15T03:21:29;100941.72;;;8.63;76.10
49541;BME280;35432;43.566;1.398;2023-02-15T03:24:06;100939.97;;;8.60;75.58
49541;BME280;35432;43.566;1.398;2023-02-15T03:26:34;100939.06;;;8.58;75.79
49541;BME280;35432;43.566;1.398;2023-02-15T03:29:02;100939.00;;;8.57;75.80
49541;BME280;35432;43.566;1.398;2023-02-15T03:31:32;100938.97;;;8.54;75.74
49541;BME280;35432;43.566;1.398;2023-02-15T03:34:02;100935.44;;;8.52;75.88
49541;BME280;35432;43.566;1.398;2023-02-15T03:36:50;100942.34;;;8.46;75.73
49541;BME280;35432;43.566;1.398;2023-02-15T03:39:20;100930.94;;;8.46;75.90
49541;BME280;35432;43.566;1.398;2023-02-15T03:41:54;100940.50;;;8.42;75.87
49541;BME280;35432;43.566;1.398;2023-02-15T03:44:30;100940.50;;;8.42;76.08
49541;BME280;35432;43.566;1.398;2023-02-15T03:49:24;100946.59;;;8.40;76.17
49541;BME280;35432;43.566;1.398;2023-02-15T03:51:56;100943.13;;;8.41;76.24
49541;BME280;35432;43.566;1.398;2023-02-15T03:54:27;100950.94;;;8.39;76.41
49541;BME280;35432;43.566;1.398;2023-02-15T04:00:09;100954.38;;;8.35;76.53
49541;BME280;35432;43.566;1.398;2023-02-15T04:03:03;100956.16;;;8.35;76.64
49541;BME280;35432;43.566;1.398;2023-02-15T04:05:32;100959.63;;;8.35;76.48
49541;BME280;35432;43.566;1.398;2023-02-15T04:07:57;100957.88;;;8.34;76.37
49541;BME280;35432;43.566;1.398;2023-02-15T04:10:22;100962.25;;;8.35;76.24
49541;BME280;35432;43.566;1.398;2023-02-15T04:13:07;100965.75;;;8.34;76.33
49541;BME280;35432;43.566;1.398;2023-02-15T04:15:32;100962.25;;;8.33;76.01
49541;BME280;35432;43.566;1.398;2023-02-15T04:18:16;100962.25;;;8.33;76.71
49541;BME280;35432;43.566;1.398;2023-02-15T04:20:45;100970.09;;;8.32;76.52
49541;BME280;35432;43.566;1.398;2023-02-15T04:23:29;100973.56;;;8.31;76.42
49541;BME280;35432;43.566;1.398;2023-02-15T04:26:14;100972.69;;;8.30;76.65
49541;BME280;35432;43.566;1.398;2023-02-15T04:28:39;100971.78;;;8.28;76.58
49541;BME280;35432;43.566;1.398;2023-02-15T04:31:05;100977.00;;;8.28;76.52
49541;BME280;35432;43.566;1.398;2023-02-15T04:33:30;100981.34;;;8.26;76.58
49541;BME280;35432;43.566;1.398;2023-02-15T04:35:56;100979.59;;;8.25;76.50
49541;BME280;35432;43.566;1.398;2023-02-15T04:38:22;100976.06;;;8.23;76.28
49541;BME280;35432;43.566;1.398;2023-02-15T04:40:51;100981.25;;;8.20;76.20
49541;BME280;35432;43.566;1.398;2023-02-15T04:43:18;100977.69;;;8.16;76.23
49541;BME280;35432;43.566;1.398;2023-02-15T04:45:50;100978.53;;;8.15;76.48
49541;BME280;35432;43.566;1.398;2023-02-15T04:48:16;100977.69;;;8.15;76.54
49541;BME280;35432;43.566;1.398;2023-02-15T04:50:43;100975.06;;;8.15;76.47
49541;BME280;35432;43.566;1.398;2023-02-15T04:53:08;100981.16;;;8.14;76.22
49541;BME280;35432;43.566;1.398;2023-02-15T04:55:34;100973.25;;;8.12;76.21
49541;BME280;35432;43.566;1.398;2023-02-15T04:57:59;100976.72;;;8.11;75.79
49541;BME280;35432;43.566;1.398;2023-02-15T05:00:25;100981.97;;;8.10;75.87
49541;BME280;35432;43.566;1.398;2023-02-15T05:02:50;100981.03;;;8.06;75.51
49541;BME280;35432;43.566;1.398;2023-02-15T05:05:15;100977.44;;;8.02;75.59
49541;BME280;35432;43.566;1.398;2023-02-15T05:07:41;100984.34;;;7.97;74.98
49541;BME280;35432;43.566;1.398;2023-02-15T05:10:07;100979.91;;;7.93;75.49
49541;BME280;35432;43.566;1.398;2023-02-15T05:12:32;100977.19;;;7.87;75.01
49541;BME280;35432;43.566;1.398;2023-02-15T05:14:58;100982.28;;;7.81;75.11
49541;BME280;35432;43.566;1.398;2023-02-15T05:17:23;100979.59;;;7.76;74.99
49541;BME280;35432;43.566;1.398;2023-02-15T05:19:49;100977.78;;;7.72;75.20
49541;BME280;35432;43.566;1.398;2023-02-15T05:22:14;100977.69;;;7.69;75.57
49541;BME280;35432;43.566;1.398;2023-02-15T05:24:39;100980.31;;;7.67;75.42
49541;BME280;35432;43.566;1.398;2023-02-15T05:27:23;100975.88;;;7.65;75.91
49541;BME280;35432;43.566;1.398;2023-02-15T05:30:08;100981.09;;;7.63;75.21
49541;BME280;35432;43.566;1.398;2023-02-15T05:32:37;100981.97;;;7.62;75.84
49541;BME280;35432;43.566;1.398;2023-02-15T05:35:04;100976.72;;;7.62;75.64
49541;BME280;35432;43.566;1.398;2023-02-15T05:37:29;100976.72;;;7.62;75.27
49541;BME280;35432;43.566;1.398;2023-02-15T05:39:55;100974.97;;;7.61;75.31
49541;BME280;35432;43.566;1.398;2023-02-15T05:42:20;100969.72;;;7.61;75.99
49541;BME280;35432;43.566;1.398;2023-02-15T05:44:45;100970.63;;;7.63;76.10
49541;BME280;35432;43.566;1.398;2023-02-15T05:47:11;100973.31;;;7.66;76.06
49541;BME280;35432;43.566;1.398;2023-02-15T05:49:36;100978.59;;;7.69;76.57
49541;BME280;35432;43.566;1.398;2023-02-15T05:52:03;100973.41;;;7.72;76.87
49541;BME280;35432;43.566;1.398;2023-02-15T05:54:28;100981.38;;;7.77;76.84
49541;BME280;35432;43.566;1.398;2023-02-15T05:56:54;100981.44;;;7.82;77.13
49541;BME280;35432;43.566;1.398;2023-02-15T05:59:19;100978.03;;;7.86;76.76
49541;BME280;35432;43.566;1.398;2023-02-15T06:01:45;100975.47;;;7.89;76.97
49541;BME280;35432;43.566;1.398;2023-02-15T06:04:10;100979.88;;;7.90;76.94
49541;BME280;35432;43.566;1.398;2023-02-15T06:06:35;100979.03;;;7.93;76.85
49541;BME280;35432;43.566;1.398;2023-02-15T06:09:01;100985.16;;;7.95;77.03
49541;BME280;35432;43.566;1.398;2023-02-15T06:11:27;100982.59;;;7.96;76.80
49541;BME280;35432;43.566;1.398;2023-02-15T06:13:52;100988.75;;;7.98;77.06
49541;BME280;35432;43.566;1.398;2023-02-15T06:16:18;100976.53;;;7.99;76.91
49541;BME280;35432;43.566;1.398;2023-02-15T06:18:43;100992.28;;;8.00;76.98
49541;BME280;35432;43.566;1.398;2023-02-15T06:21:09;100998.38;;;7.99;76.69
49541;BME280;35432;43.566;1.398;2023-02-15T06:23:34;101001.00;;;7.98;76.32
49541;BME280;35432;43.566;1.398;2023-02-15T06:26:00;101004.44;;;7.95;75.96
49541;BME280;35432;43.566;1.398;2023-02-15T06:28:25;101007.84;;;7.91;76.24
49541;BME280;35432;43.566;1.398;2023-02-15T06:30:51;101007.75;;;7.85;75.58
49541;BME280;35432;43.566;1.398;2023-02-15T06:33:17;101006.75;;;7.80;75.29
49541;BME280;35432;43.566;1.398;2023-02-15T06:35:42;101003.16;;;7.74;75.61
49541;BME280;35432;43.566;1.398;2023-02-15T06:38:08;101005.69;;;7.70;75.39
49541;BME280;35432;43.566;1.398;2023-02-15T06:40:33;101008.22;;;7.65;75.39
49541;BME280;35432;43.566;1.398;2023-02-15T06:42:59;101014.28;;;7.61;74.94
49541;BME280;35432;43.566;1.398;2023-02-15T06:45:24;101016.81;;;7.58;75.20
49541;BME280;35432;43.566;1.398;2023-02-15T06:47:49;101018.50;;;7.54;74.93
49541;BME280;35432;43.566;1.398;2023-02-15T06:50:15;101020.22;;;7.52;75.20
49541;BME280;35432;43.566;1.398;2023-02-15T06:52:40;101021.00;;;7.48;74.77
49541;BME280;35432;43.566;1.398;2023-02-15T06:55:06;101030.53;;;7.44;74.89
49541;BME280;35432;43.566;1.398;2023-02-15T06:57:32;101034.81;;;7.41;74.66
49541;BME280;35432;43.566;1.398;2023-02-15T06:59:58;101032.16;;;7.39;74.65
49541;BME280;35432;43.566;1.398;2023-02-15T07:02:24;101035.66;;;7.40;74.92
49541;BME280;35432;43.566;1.398;2023-02-15T07:04:49;101039.19;;;7.40;74.68
49541;BME280;35432;43.566;1.398;2023-02-15T07:07:14;101042.72;;;7.42;74.81
49541;BME280;35432;43.566;1.398;2023-02-15T07:09:40;101044.47;;;7.43;75.39
49541;BME280;35432;43.566;1.398;2023-02-15T07:12:06;101049.78;;;7.46;75.25
49541;BME280;35432;43.566;1.398;2023-02-15T07:14:50;101053.38;;;7.52;75.20
49541;BME280;35432;43.566;1.398;2023-02-15T07:17:15;101056.16;;;7.59;75.05
49541;BME280;35432;43.566;1.398;2023-02-15T07:19:41;101058.13;;;7.70;74.98
49541;BME280;35432;43.566;1.398;2023-02-15T07:22:07;101062.66;;;7.79;75.07
49541;BME280;35432;43.566;1.398;2023-02-15T07:24:32;101056.78;;;7.89;74.97
49541;BME280;35432;43.566;1.398;2023-02-15T07:26:57;101063.94;;;7.98;74.64
49541;BME280;35432;43.566;1.398;2023-02-15T07:29:24;101061.53;;;8.09;75.10
49541;BME280;35432;43.566;1.398;2023-02-15T07:31:49;101068.69;;;8.19;74.62
49541;BME280;35432;43.566;1.398;2023-02-15T07:34:15;101064.56;;;8.32;74.50
49541;BME280;35432;43.566;1.398;2023-02-15T07:36:41;101066.53;;;8.44;74.19
49541;BME280;35432;43.566;1.398;2023-02-15T07:39:07;101074.63;;;8.55;74.47
49541;BME280;35432;43.566;1.398;2023-02-15T07:41:32;101074.81;;;8.66;74.28
49541;BME280;35432;43.566;1.398;2023-02-15T07:43:57;101079.34;;;8.74;74.17
49541;BME280;35432;43.566;1.398;2023-02-15T07:46:23;101080.38;;;8.84;73.89
49541;BME280;35432;43.566;1.398;2023-02-15T07:48:48;101079.59;;;8.92;73.99
49541;BME280;35432;43.566;1.398;2023-02-15T07:51:14;101086.72;;;8.99;73.79
49541;BME280;35432;43.566;1.398;2023-02-15T07:53:40;101078.09;;;9.08;73.79
49541;BME280;35432;43.566;1.398;2023-02-15T07:56:15;101079.03;;;9.11;73.07
49541;BME280;35432;43.566;1.398;2023-02-15T07:58:40;101081.78;;;9.21;73.93
49541;BME280;35432;43.566;1.398;2023-02-15T08:01:30;101075.72;;;9.25;72.90
49541;BME280;35432;43.566;1.398;2023-02-15T08:03:56;101083.81;;;9.40;73.23
49541;BME280;35432;43.566;1.398;2023-02-15T08:06:24;101080.66;;;9.65;73.03
49541;BME280;35432;43.566;1.398;2023-02-15T08:08:50;101085.66;;;10.18;72.54
49541;BME280;35432;43.566;1.398;2023-02-15T08:21:55;101069.47;;;13.17;68.52
49541;BME280;35432;43.566;1.398;2023-02-15T08:24:29;101065.81;;;13.62;67.25
49541;BME280;35432;43.566;1.398;2023-02-15T08:26:55;101068.66;;;14.81;66.60
49541;BME280;35432;43.566;1.398;2023-02-15T08:29:25;101052.66;;;16.39;64.52
49541;BME280;35432;43.566;1.398;2023-02-15T08:32:05;101052.09;;;18.49;59.95
49541;BME280;35432;43.566;1.398;2023-02-15T08:34:33;101043.06;;;20.44;59.06
49541;BME280;35432;43.566;1.398;2023-02-15T08:36:59;101039.38;;;21.51;56.68
49541;BME280;35432;43.566;1.398;2023-02-15T08:39:24;101039.28;;;22.47;53.91
49541;BME280;35432;43.566;1.398;2023-02-15T08:41:50;101035.25;;;23.61;52.68
49541;BME280;35432;43.566;1.398;2023-02-15T08:44:17;101025.16;;;24.78;50.27
49541;BME280;35432;43.566;1.398;2023-02-15T08:46:45;101016.13;;;25.96;48.10
49541;BME280;35432;43.566;1.398;2023-02-15T08:49:13;101021.19;;;26.96;46.77
49541;BME280;35432;43.566;1.398;2023-02-15T08:51:39;101025.53;;;27.71;45.38
49541;BME280;35432;43.566;1.398;2023-02-15T08:54:08;101009.19;;;28.29;44.02
49541;BME280;35432;43.566;1.398;2023-02-15T08:56:37;101009.78;;;28.87;43.37
49541;BME280;35432;43.566;1.398;2023-02-15T08:59:04;101015.81;;;29.30;41.19
49541;BME280;35432;43.566;1.398;2023-02-15T09:01:32;101019.69;;;28.74;41.09
49541;BME280;35432;43.566;1.398;2023-02-15T09:04:01;101026.03;;;27.77;41.70
49541;BME280;35432;43.566;1.398;2023-02-15T09:06:27;101026.78;;;27.36;42.40
49541;BME280;35432;43.566;1.398;2023-02-15T09:08:54;101030.63;;;27.03;42.16
49541;BME280;35432;43.566;1.398;2023-02-15T09:11:30;101032.66;;;26.69;38.63
49541;BME280;35432;43.566;1.398;2023-02-15T09:14:00;101045.63;;;26.31;42.24
49541;BME280;35432;43.566;1.398;2023-02-15T09:16:28;101046.47;;;25.51;43.41
49541;BME280;35432;43.566;1.398;2023-02-15T09:18:55;101040.34;;;24.97;44.73
49541;BME280;35432;43.566;1.398;2023-02-15T09:21:24;101045.44;;;24.12;45.30
49541;BME280;35432;43.566;1.398;2023-02-15T09:23:52;101061.28;;;23.79;45.97
49541;BME280;35432;43.566;1.398;2023-02-15T09:26:21;101042.16;;;23.86;43.63
49541;BME280;35432;43.566;1.398;2023-02-15T09:28:51;101053.06;;;23.83;44.60
49541;BME280;35432;43.566;1.398;2023-02-15T09:31:19;101047.09;;;23.57;45.54
49541;BME280;35432;43.566;1.398;2023-02-15T09:33:47;101049.13;;;23.71;45.07
49541;BME280;35432;43.566;1.398;2023-02-15T09:36:16;101047.22;;;23.92;44.83
49541;BME280;35432;43.566;1.398;2023-02-15T09:38:44;101050.09;;;24.45;44.68
49541;BME280;35432;43.566;1.398;2023-02-15T09:41:35;101043.59;;;25.37;42.58
49541;BME280;35432;43.566;1.398;2023-02-15T09:57:51;101050.69;;;25.04;41.66
49541;BME280;35432;43.566;1.398;2023-02-15T10:22:42;101035.38;;;29.61;36.99
49541;BME280;35432;43.566;1.398;2023-02-15T10:25:31;101038.19;;;29.33;32.50
49541;BME280;35432;43.566;1.398;2023-02-15T10:28:06;101036.59;;;29.81;35.55
49541;BME280;35432;43.566;1.398;2023-02-15T10:33:07;101039.13;;;30.21;36.10
49541;BME280;35432;43.566;1.398;2023-02-15T10:38:33;101045.66;;;29.04;36.16
49541;BME280;35432;43.566;1.398;2023-02-15T10:41:24;101052.50;;;27.87;36.73
49541;BME280;35432;43.566;1.398;2023-02-15T10:49:45;101068.00;;;26.80;36.13
49541;BME280;35432;43.566;1.398;2023-02-15T10:52:33;101064.44;;;26.49;34.00
49541;BME280;35432;43.566;1.398;2023-02-15T11:00:23;101039.78;;;28.44;38.26
49541;BME280;35432;43.566;1.398;2023-02-15T11:08:16;101038.19;;;29.33;35.74
49541;BME280;35432;43.566;1.398;2023-02-15T11:10:57;101036.91;;;29.52;33.08
49541;BME280;35432;43.566;1.398;2023-02-15T11:13:31;101043.16;;;29.78;35.14
49541;BME280;35432;43.566;1.398;2023-02-15T11:16:29;101037.97;;;29.23;32.58
49541;BME280;35432;43.566;1.398;2023-02-15T11:19:01;101039.69;;;29.25;36.45
49541;BME280;35432;43.566;1.398;2023-02-15T11:21:34;101037.34;;;29.07;35.50
49541;BME280;35432;43.566;1.398;2023-02-15T11:24:12;101039.53;;;28.74;37.33
49541;BME280;35432;43.566;1.398;2023-02-15T11:27:05;101041.50;;;28.17;31.30
49541;BME280;35432;43.566;1.398;2023-02-15T11:32:37;101046.84;;;27.03;36.37
49541;BME280;35432;43.566;1.398;2023-02-15T11:40:40;101060.94;;;24.80;39.31
49541;BME280;35432;43.566;1.398;2023-02-15T11:43:15;101046.38;;;24.47;42.40
49541;BME280;35432;43.566;1.398;2023-02-15T11:45:45;101058.31;;;24.24;44.39
49541;BME280;35432;43.566;1.398;2023-02-15T11:48:13;101058.72;;;23.96;44.55
49541;BME280;35432;43.566;1.398;2023-02-15T11:50:39;101061.03;;;23.65;45.60
49541;BME280;35432;43.566;1.398;2023-02-15T11:53:12;101050.03;;;23.50;45.24
49541;BME280;35432;43.566;1.398;2023-02-15T11:55:38;101040.69;;;23.59;45.80
49541;BME280;35432;43.566;1.398;2023-02-15T12:00:44;101043.75;;;23.51;44.31
49541;BME280;35432;43.566;1.398;2023-02-15T12:06:23;101048.94;;;22.73;46.28
49541;BME280;35432;43.566;1.398;2023-02-15T12:09:03;101049.16;;;22.45;46.32
49541;BME280;35432;43.566;1.398;2023-02-15T12:11:37;101040.06;;;21.80;44.33
49541;BME280;35432;43.566;1.398;2023-02-15T12:14:08;101047.06;;;21.37;47.23
49541;BME280;35432;43.566;1.398;2023-02-15T12:16:41;101033.28;;;20.97;47.71
49541;BME280;35432;43.566;1.398;2023-02-15T12:19:26;101035.81;;;20.75;47.77
49541;BME280;35432;43.566;1.398;2023-02-15T12:21:53;101042.81;;;20.52;49.78
49541;BME280;35432;43.566;1.398;2023-02-15T12:24:24;101048.28;;;20.20;45.32
49541;BME280;35432;43.566;1.398;2023-02-15T12:27:05;101044.06;;;19.83;46.01
49541;BME280;35432;43.566;1.398;2023-02-15T12:30:04;101041.69;;;19.42;45.84
49541;BME280;35432;43.566;1.398;2023-02-15T12:32:46;101044.81;;;19.25;47.53
49541;BME280;35432;43.566;1.398;2023-02-15T12:35:27;101040.47;;;19.21;48.93
49541;BME280;35432;43.566;1.398;2023-02-15T12:38:03;101036.94;;;19.20;51.74
49541;BME280;35432;43.566;1.398;2023-02-15T12:40:30;101032.00;;;19.38;52.40
49541;BME280;35432;43.566;1.398;2023-02-15T12:42:56;101034.31;;;19.50;52.66
49541;BME280;35432;43.566;1.398;2023-02-15T12:45:32;101027.13;;;19.53;50.82
49541;BME280;35432;43.566;1.398;2023-02-15T12:50:50;101022.22;;;19.69;47.40
49541;BME280;35432;43.566;1.398;2023-02-15T12:53:22;101022.91;;;19.75;50.66
49541;BME280;35432;43.566;1.398;2023-02-15T12:58:20;101022.28;;;19.67;51.84
49541;BME280;35432;43.566;1.398;2023-02-15T13:00:48;101017.56;;;19.45;52.16
49541;BME280;35432;43.566;1.398;2023-02-15T13:03:26;101022.09;;;19.42;52.73
49541;BME280;35432;43.566;1.398;2023-02-15T13:05:53;101017.19;;;19.26;51.62
49541;BME280;35432;43.566;1.398;2023-02-15T13:08:31;101015.09;;;19.06;45.53
49541;BME280;35432;43.566;1.398;2023-02-15T13:11:08;101009.09;;;18.96;45.29
49541;BME280;35432;43.566;1.398;2023-02-15T13:13:58;101015.00;;;18.74;47.33
49541;BME280;35432;43.566;1.398;2023-02-15T13:18:56;101011.59;;;18.68;51.96
49541;BME280;35432;43.566;1.398;2023-02-15T13:21:26;101010.03;;;18.60;52.40
49541;BME280;35432;43.566;1.398;2023-02-15T13:23:56;101008.19;;;18.62;52.49
49541;BME280;35432;43.566;1.398;2023-02-15T13:26:26;101016.19;;;18.62;50.19
49541;BME280;35432;43.566;1.398;2023-02-15T13:28:54;101017.88;;;18.67;51.79
49541;BME280;35432;43.566;1.398;2023-02-15T13:31:23;101020.84;;;18.54;51.71
49541;BME280;35432;43.566;1.398;2023-02-15T13:33:58;101011.19;;;18.50;50.31
49541;BME280;35432;43.566;1.398;2023-02-15T13:36:27;101013.88;;;18.48;52.63
49541;BME280;35432;43.566;1.398;2023-02-15T13:39:07;101009.19;;;18.58;52.79
49541;BME280;35432;43.566;1.398;2023-02-15T13:41:53;101008.88;;;18.71;49.97
49541;BME280;35432;43.566;1.398;2023-02-15T13:47:21;101001.47;;;18.82;47.33
49541;BME280;35432;43.566;1.398;2023-02-15T13:53:02;100997.88;;;18.83;46.54
49541;BME280;35432;43.566;1.398;2023-02-15T13:55:51;100999.00;;;18.74;46.66
49541;BME280;35432;43.566;1.398;2023-02-15T13:58:29;100993.66;;;18.74;49.71
49541;BME280;35432;43.566;1.398;2023-02-15T14:01:10;100990.22;;;18.71;50.69
49541;BME280;35432;43.566;1.398;2023-02-15T14:10:27;100987.75;;;18.27;48.57
49541;BME280;35432;43.566;1.398;2023-02-15T14:13:27;100992.31;;;18.21;49.04
49541;BME280;35432;43.566;1.398;2023-02-15T14:16:00;100989.84;;;18.14;48.48
49541;BME280;35432;43.566;1.398;2023-02-15T14:18:43;100995.41;;;18.04;49.56
49541;BME280;35432;43.566;1.398;2023-02-15T14:24:14;100996.22;;;18.06;48.82
49541;BME280;35432;43.566;1.398;2023-02-15T14:31:49;101000.81;;;18.01;51.88
49541;BME280;35432;43.566;1.398;2023-02-15T14:37:04;101004.50;;;17.92;53.60
49541;BME280;35432;43.566;1.398;2023-02-15T14:39:55;101002.03;;;17.85;50.93
49541;BME280;35432;43.566;1.398;2023-02-15T14:45:40;101004.31;;;17.61;46.09
49541;BME280;35432;43.566;1.398;2023-02-15T14:48:18;101012.53;;;17.50;50.62
49541;BME280;35432;43.566;1.398;2023-02-15T14:50:46;101010.97;;;17.40;54.39
49541;BME280;35432;43.566;1.398;2023-02-15T14:58:55;101002.38;;;17.25;51.16
49541;BME280;35432;43.566;1.398;2023-02-15T15:01:33;101007.72;;;17.24;50.67
49541;BME280;35432;43.566;1.398;2023-02-15T15:04:04;101003.31;;;17.22;54.13
49541;BME280;35432;43.566;1.398;2023-02-15T15:06:35;101008.81;;;17.13;51.54
49541;BME280;35432;43.566;1.398;2023-02-15T15:09:20;101007.97;;;17.11;51.24
49541;BME280;35432;43.566;1.398;2023-02-15T15:11:49;101013.31;;;17.10;54.43
49541;BME280;35432;43.566;1.398;2023-02-15T15:17:00;101014.28;;;17.07;55.40
49541;BME280;35432;43.566;1.398;2023-02-15T15:22:21;101017.91;;;17.03;51.11
49541;BME280;35432;43.566;1.398;2023-02-15T15:24:51;101019.72;;;17.01;54.00
49541;BME280;35432;43.566;1.398;2023-02-15T15:27:46;101019.84;;;16.91;49.04
49541;BME280;35432;43.566;1.398;2023-02-15T15:35:34;101012.03;;;16.82;52.21
49541;BME280;35432;43.566;1.398;2023-02-15T15:43:46;101016.56;;;16.77;56.22
49541;BME280;35432;43.566;1.398;2023-02-15T15:49:12;101024.94;;;16.54;53.35
49541;BME280;35432;43.566;1.398;2023-02-15T15:51:42;101015.38;;;16.42;56.44
49541;BME280;35432;43.566;1.398;2023-02-15T15:54:24;101022.59;;;16.33;50.95
49541;BME280;35432;43.566;1.398;2023-02-15T15:56:55;101023.56;;;16.29;56.83
49541;BME280;35432;43.566;1.398;2023-02-15T15:59:27;101017.53;;;16.18;52.64
49541;BME280;35432;43.566;1.398;2023-02-15T16:01:54;101018.47;;;16.14;57.31
49541;BME280;35432;43.566;1.398;2023-02-15T16:04:28;101028.34;;;16.05;55.48
49541;BME280;35432;43.566;1.398;2023-02-15T16:07:01;101038.19;;;15.99;57.72